Capitol Logistics 7313

Operating for MZN



PHOG
Kahului Airport
Kahului, Hawaii
KSBD
San Bernardino International Airport
San Bernardino, California

Activity Log

Date Flight Route Aircraft Duration
No Flights Yet

Route Details

Aircraft Information
Primary: Boeing 767-300BDSF
Backup: Boeing 757-200SF
Route Data
Distance: 2201nm
Duration: 4h 54m
Recm'd Route: CLUTS R465 CIVIT R585 AUDIA MQO EHF ZIGGY7
Origin Wx: PHOG 180154Z 02014KT 10SM FEW030 SCT050 25/19 A3001 RMK AO2 SLP167 T02500194 $
Dest. Wx: KSBD 180251Z 24007KT 10SM FEW120 22/08 A2992
Notes: